createdAt,value
2018-05-29T00:00:51.501Z,23.80
2018-05-29T00:03:19.049Z,24.47
2018-05-29T00:05:46.808Z,19.70
2018-05-29T00:08:15.204Z,20.37
2018-05-29T00:10:43.055Z,23.50
2018-05-29T00:13:13.692Z,20.50
2018-05-29T00:15:41.147Z,19.40
2018-05-29T00:18:08.602Z,21.73
2018-05-29T00:20:36.088Z,21.63
2018-05-29T00:23:05.259Z,19.55
2018-05-29T00:25:32.721Z,19.73
2018-05-29T00:28:04.510Z,23.83
2018-05-29T00:30:32.129Z,25.67
2018-05-29T00:32:59.629Z,23.98
2018-05-29T00:35:27.369Z,22.50
2018-05-29T00:37:54.832Z,25.43
2018-05-29T00:40:22.488Z,24.53
2018-05-29T00:42:50.037Z,19.73
2018-05-29T00:45:17.506Z,21.90
2018-05-29T00:47:45.768Z,23.10
2018-05-29T00:50:14.508Z,21.75
2018-05-29T00:52:41.953Z,23.70
2018-05-29T00:55:21.081Z,22.67
2018-05-29T00:57:48.543Z,22.20
2018-05-29T01:00:16.016Z,26.47
2018-05-29T01:02:44.418Z,26.50
2018-05-29T01:05:12.036Z,24.97
2018-05-29T01:07:39.512Z,23.67
2018-05-29T01:10:06.995Z,25.83
2018-05-29T01:12:35.757Z,24.97
2018-05-29T01:15:03.926Z,25.73
2018-05-29T01:17:31.448Z,26.57
2018-05-29T01:19:59.711Z,27.57
2018-05-29T01:22:27.172Z,24.83
2018-05-29T01:24:54.665Z,26.50
2018-05-29T01:27:22.861Z,23.77
2018-05-29T01:29:50.341Z,27.90
2018-05-29T01:32:18.256Z,27.57
2018-05-29T01:34:46.196Z,27.05
2018-05-29T01:37:14.470Z,25.73
2018-05-29T01:39:42.636Z,27.77
2018-05-29T01:42:10.313Z,31.40
2018-05-29T01:44:38.580Z,26.42
2018-05-29T01:47:07.009Z,28.07
2018-05-29T01:49:34.469Z,24.37
2018-05-29T01:52:02.058Z,27.00
2018-05-29T01:54:29.531Z,25.20
2018-05-29T01:56:57.011Z,28.27
2018-05-29T01:59:29.259Z,30.07
2018-05-29T02:01:56.729Z,28.80
2018-05-29T02:04:24.764Z,30.80
2018-05-29T02:06:52.248Z,33.60
2018-05-29T02:09:19.720Z,33.13
2018-05-29T02:11:48.034Z,32.40
2018-05-29T02:14:15.483Z,32.17
2018-05-29T02:16:43.034Z,34.63
2018-05-29T02:19:10.485Z,29.83
2018-05-29T02:21:37.982Z,30.13
2018-05-29T02:24:05.473Z,30.62
2018-05-29T02:26:32.968Z,30.67
2018-05-29T02:29:00.585Z,26.80
2018-05-29T02:31:28.043Z,28.83
2018-05-29T02:34:04.605Z,30.77
2018-05-29T02:36:32.081Z,33.60
2018-05-29T02:39:00.640Z,29.17
2018-05-29T02:41:29.043Z,30.73
2018-05-29T02:43:56.583Z,35.17
2018-05-29T02:46:29.076Z,29.75
2018-05-29T02:48:56.716Z,37.97
2018-05-29T02:51:24.229Z,33.58
2018-05-29T02:53:51.732Z,34.70
2018-05-29T02:56:20.349Z,23.48
2018-05-29T02:58:48.568Z,36.00
2018-05-29T03:01:19.442Z,26.83
2018-05-29T03:03:46.912Z,27.10
2018-05-29T03:06:14.797Z,32.45
2018-05-29T03:08:42.280Z,31.67
2018-05-29T03:11:09.782Z,32.60
2018-05-29T03:13:37.269Z,33.88
2018-05-29T03:16:04.746Z,33.58
2018-05-29T03:18:32.241Z,32.27
2018-05-29T03:20:59.739Z,36.07
2018-05-29T03:23:28.915Z,32.50
2018-05-29T03:25:56.380Z,36.13
2018-05-29T03:28:24.656Z,31.00
2018-05-29T03:30:53.877Z,35.47
2018-05-29T03:33:21.403Z,35.57
2018-05-29T03:35:48.878Z,37.67
2018-05-29T03:38:17.680Z,33.03
2018-05-29T03:40:45.157Z,36.67
2018-05-29T03:43:13.474Z,33.65
2018-05-29T03:45:41.276Z,30.07
2018-05-29T03:48:09.527Z,36.25
2018-05-29T03:50:37.237Z,34.88
2018-05-29T03:53:04.724Z,31.10
2018-05-29T03:55:32.216Z,29.40
2018-05-29T03:57:59.688Z,27.87
2018-05-29T04:00:27.240Z,35.05
2018-05-29T04:02:54.712Z,32.63
2018-05-29T04:05:22.193Z,34.20
2018-05-29T04:07:51.363Z,37.13
2018-05-29T04:10:18.846Z,28.80
2018-05-29T04:12:46.344Z,29.80
2018-05-29T04:15:14.416Z,35.25
2018-05-29T04:17:42.066Z,34.00
2018-05-29T04:20:10.848Z,30.77
2018-05-29T04:22:38.357Z,32.35
2018-05-29T04:25:05.821Z,28.75
2018-05-29T04:27:33.301Z,27.90
2018-05-29T04:30:00.997Z,30.67
2018-05-29T04:32:30.205Z,25.45
2018-05-29T04:34:57.671Z,27.10
2018-05-29T04:37:25.178Z,25.47
2018-05-29T04:39:52.660Z,27.67
2018-05-29T04:42:20.166Z,29.80
2018-05-29T04:44:48.361Z,31.00
2018-05-29T04:47:15.884Z,26.58
2018-05-29T04:49:44.178Z,22.27
2018-05-29T04:52:11.624Z,21.23
2018-05-29T04:54:39.140Z,26.63
2018-05-29T04:57:06.617Z,22.27
2018-05-29T04:59:34.303Z,23.37
2018-05-29T05:02:02.319Z,21.37
2018-05-29T05:04:29.796Z,20.65
2018-05-29T05:06:57.289Z,19.90
2018-05-29T05:09:30.555Z,21.60
2018-05-29T05:11:58.014Z,21.70
2018-05-29T05:14:25.870Z,21.98
2018-05-29T05:16:53.353Z,20.50
2018-05-29T05:19:22.543Z,19.60
2018-05-29T05:21:50.078Z,18.47
2018-05-29T05:24:17.991Z,18.97
2018-05-29T05:26:45.525Z,19.10
2018-05-29T05:29:12.991Z,18.03
2018-05-29T05:31:41.980Z,20.30
2018-05-29T05:34:13.745Z,19.73
2018-05-29T05:36:41.550Z,18.80
2018-05-29T05:39:09.077Z,19.23
2018-05-29T05:41:36.524Z,19.97
2018-05-29T05:44:04.036Z,20.13
2018-05-29T05:46:31.525Z,20.70
2018-05-29T05:48:58.984Z,20.07
2018-05-29T05:51:26.467Z,22.50
2018-05-29T05:53:54.232Z,19.63
2018-05-29T05:56:21.847Z,19.13
2018-05-29T05:58:49.713Z,18.23
2018-05-29T06:01:17.618Z,18.95
2018-05-29T06:03:52.625Z,19.60
2018-05-29T06:06:20.849Z,16.73
2018-05-29T06:08:48.362Z,16.05
2018-05-29T06:11:18.182Z,18.70
2018-05-29T06:13:45.648Z,17.37
2018-05-29T06:16:13.128Z,18.37
2018-05-29T06:18:40.882Z,19.40
2018-05-29T06:21:08.362Z,19.17
2018-05-29T06:23:35.845Z,16.83
2018-05-29T06:26:03.336Z,20.60
2018-05-29T06:28:30.864Z,18.93
2018-05-29T06:30:59.303Z,17.40
2018-05-29T06:33:26.756Z,18.53
2018-05-29T06:35:54.275Z,18.30
2018-05-29T06:38:21.726Z,19.13
2018-05-29T06:40:49.193Z,18.37
2018-05-29T06:43:16.669Z,18.67
2018-05-29T06:45:44.949Z,19.87
2018-05-29T06:48:12.667Z,23.77
2018-05-29T06:50:40.157Z,21.23
2018-05-29T06:53:07.610Z,21.40
2018-05-29T06:55:35.092Z,24.67
2018-05-29T06:58:03.328Z,21.63
2018-05-29T07:00:30.911Z,20.90
2018-05-29T07:02:58.469Z,22.98
2018-05-29T07:05:26.457Z,21.27
2018-05-29T07:07:53.961Z,21.60
2018-05-29T07:10:21.672Z,19.20
2018-05-29T07:12:49.919Z,21.77
2018-05-29T07:15:17.617Z,20.92
2018-05-29T07:17:45.597Z,25.53
2018-05-29T07:20:13.131Z,21.97
2018-05-29T07:22:41.380Z,22.70
2018-05-29T07:25:08.849Z,21.62
2018-05-29T07:27:36.350Z,22.98
2018-05-29T07:30:05.543Z,22.20
2018-05-29T07:32:33.773Z,22.87
2018-05-29T07:35:04.968Z,20.20
2018-05-29T07:37:32.489Z,24.00
2018-05-29T07:39:59.994Z,24.10
2018-05-29T07:42:27.602Z,21.53
2018-05-29T07:44:55.142Z,21.63
2018-05-29T07:47:22.849Z,19.13
2018-05-29T07:49:51.109Z,20.80
2018-05-29T07:52:19.522Z,22.65
2018-05-29T07:54:47.013Z,20.30
2018-05-29T07:57:14.495Z,20.25
2018-05-29T07:59:41.991Z,21.03
2018-05-29T08:02:09.448Z,20.33
2018-05-29T08:04:36.905Z,21.50
2018-05-29T08:07:04.397Z,20.33
2018-05-29T08:09:36.213Z,24.26
2018-05-29T08:12:04.538Z,19.50
2018-05-29T08:14:33.017Z,21.10
2018-05-29T08:17:00.488Z,22.27
2018-05-29T08:19:27.968Z,27.17
2018-05-29T08:22:01.868Z,21.87
2018-05-29T08:24:29.343Z,20.63
2018-05-29T08:26:56.890Z,18.63
2018-05-29T08:29:24.647Z,24.93
2018-05-29T08:31:53.652Z,22.63
2018-05-29T08:34:21.128Z,21.80
2018-05-29T08:36:53.204Z,19.80
2018-05-29T08:39:20.753Z,20.50
2018-05-29T08:41:48.193Z,26.70
2018-05-29T08:44:15.656Z,21.80
2018-05-29T08:46:43.168Z,24.03
2018-05-29T08:49:11.361Z,17.75
2018-05-29T08:51:42.442Z,23.87
2018-05-29T08:54:09.931Z,24.30
2018-05-29T08:56:38.888Z,20.33
2018-05-29T08:59:07.121Z,19.10
2018-05-29T09:01:35.164Z,19.43
2018-05-29T09:04:07.953Z,16.67
2018-05-29T09:06:39.525Z,18.25
2018-05-29T09:09:07.013Z,13.45
2018-05-29T09:11:34.494Z,17.50
2018-05-29T09:14:04.428Z,17.45
2018-05-29T09:16:31.918Z,17.97
2018-05-29T09:18:59.402Z,18.08
2018-05-29T09:21:30.755Z,19.12
2018-05-29T09:23:58.287Z,20.03
2018-05-29T09:26:26.584Z,17.00
2018-05-29T09:28:54.222Z,15.77
2018-05-29T09:31:21.671Z,16.23
2018-05-29T09:33:49.271Z,16.30
2018-05-29T09:36:17.497Z,16.80
2018-05-29T09:38:44.997Z,16.13
2018-05-29T09:41:13.380Z,16.42
2018-05-29T09:43:42.545Z,16.70
2018-05-29T09:46:10.036Z,16.02
2018-05-29T09:48:37.493Z,15.77
2018-05-29T09:51:04.956Z,15.93
2018-05-29T09:53:32.423Z,17.57
2018-05-29T09:55:59.952Z,14.93
2018-05-29T09:58:27.434Z,15.83
2018-05-29T10:00:55.830Z,20.20
2018-05-29T10:03:23.289Z,14.60
2018-05-29T10:05:50.783Z,13.27
2018-05-29T10:08:18.249Z,13.70
2018-05-29T10:10:45.746Z,13.30
2018-05-29T10:13:14.934Z,11.93
2018-05-29T10:15:42.403Z,16.30
2018-05-29T10:18:10.073Z,13.80
2018-05-29T10:20:37.712Z,14.90
2018-05-29T10:23:08.461Z,15.30
2018-05-29T10:25:36.732Z,15.38
2018-05-29T10:28:04.192Z,13.70
2018-05-29T10:30:32.204Z,13.30
2018-05-29T10:32:59.768Z,13.27
2018-05-29T10:35:27.224Z,15.93
2018-05-29T10:37:58.720Z,15.80
2018-05-29T10:40:26.190Z,14.48
2018-05-29T10:42:53.941Z,15.07
2018-05-29T10:45:21.406Z,16.10
2018-05-29T10:47:49.015Z,15.80
2018-05-29T10:50:16.481Z,13.17
2018-05-29T10:52:43.991Z,17.37
2018-05-29T10:55:11.449Z,15.30
2018-05-29T10:57:38.908Z,14.73
2018-05-29T11:00:07.128Z,14.97
2018-05-29T11:02:34.648Z,18.43
2018-05-29T11:05:02.905Z,15.87
2018-05-29T11:07:30.364Z,15.87
2018-05-29T11:09:57.865Z,21.50
2018-05-29T11:12:25.470Z,17.67
2018-05-29T11:14:54.641Z,20.50
2018-05-29T11:17:22.140Z,16.67
2018-05-29T11:19:49.588Z,16.10
2018-05-29T11:22:17.116Z,17.50
2018-05-29T11:24:49.304Z,16.13
2018-05-29T11:27:16.973Z,16.73
2018-05-29T11:29:44.449Z,16.33
2018-05-29T11:32:12.703Z,18.30
2018-05-29T11:34:40.652Z,19.23
2018-05-29T11:37:08.337Z,14.80
2018-05-29T11:39:36.566Z,12.97
2018-05-29T11:42:08.577Z,17.10
2018-05-29T11:44:36.051Z,12.20
2018-05-29T11:47:03.555Z,13.57
2018-05-29T11:49:31.864Z,13.90
2018-05-29T11:51:59.379Z,10.93
2018-05-29T11:54:29.953Z,12.33
2018-05-29T11:56:57.415Z,11.97
2018-05-29T11:59:25.708Z,14.20
2018-05-29T12:01:53.453Z,14.37
2018-05-29T12:04:20.980Z,19.37
2018-05-29T12:06:48.473Z,11.87
2018-05-29T12:09:19.307Z,11.53
2018-05-29T12:11:47.074Z,10.97
2018-05-29T12:14:14.579Z,11.48
2018-05-29T12:16:42.040Z,10.57
2018-05-29T12:19:09.516Z,9.50
2018-05-29T12:21:37.005Z,11.73
2018-05-29T12:24:04.539Z,8.60
2018-05-29T12:26:31.996Z,11.80
2018-05-29T12:28:59.485Z,13.15
2018-05-29T12:31:26.993Z,16.07
2018-05-29T12:33:54.656Z,17.53
2018-05-29T12:36:22.697Z,11.93
2018-05-29T12:38:50.195Z,11.07
2018-05-29T12:41:17.656Z,18.92
2018-05-29T12:43:45.149Z,15.60
2018-05-29T12:46:12.980Z,10.80
2018-05-29T12:48:40.566Z,11.00
2018-05-29T12:51:08.135Z,13.00
2018-05-29T12:53:36.504Z,11.52
2018-05-29T12:56:04.216Z,12.97
2018-05-29T12:58:31.735Z,12.00
2018-05-29T13:00:59.449Z,18.23
2018-05-29T13:03:26.956Z,10.10
2018-05-29T13:05:54.506Z,10.90
2018-05-29T13:08:22.013Z,14.67
2018-05-29T13:10:50.244Z,17.27
2018-05-29T13:13:18.749Z,13.97
2018-05-29T13:15:46.327Z,14.23
2018-05-29T13:18:14.728Z,15.77
2018-05-29T13:20:42.229Z,15.93
2018-05-29T13:23:10.602Z,12.83
2018-05-29T13:25:43.181Z,16.50
2018-05-29T13:28:10.738Z,13.48
2018-05-29T13:30:38.392Z,12.93
2018-05-29T13:33:05.877Z,12.60
2018-05-29T13:35:34.947Z,14.00
2018-05-29T13:38:02.429Z,29.43
2018-05-29T13:40:29.918Z,12.25
2018-05-29T13:43:01.418Z,13.43
2018-05-29T13:45:29.303Z,12.77
2018-05-29T13:47:57.044Z,9.65
2018-05-29T13:50:25.318Z,13.03
2018-05-29T13:52:52.784Z,12.53
2018-05-29T13:55:21.053Z,9.65
2018-05-29T13:57:48.736Z,13.10
2018-05-29T14:00:16.237Z,13.17
2018-05-29T14:02:43.701Z,12.00
2018-05-29T14:05:11.260Z,11.57
2018-05-29T14:07:38.980Z,13.18
2018-05-29T14:10:06.469Z,10.90
2018-05-29T14:12:33.968Z,11.20
2018-05-29T14:15:02.212Z,15.40
2018-05-29T14:17:29.723Z,15.07
2018-05-29T14:19:57.491Z,16.08
2018-05-29T14:22:25.016Z,12.20
2018-05-29T14:24:52.509Z,12.53
2018-05-29T14:27:24.745Z,12.10
2018-05-29T14:29:52.236Z,12.52
2018-05-29T14:32:19.721Z,13.23
2018-05-29T14:34:47.224Z,14.45
2018-05-29T14:37:14.697Z,13.60
2018-05-29T14:39:42.342Z,13.53
2018-05-29T14:42:09.800Z,15.93
2018-05-29T14:44:37.568Z,18.03
2018-05-29T14:47:05.744Z,20.40
2018-05-29T14:49:33.246Z,13.00
2018-05-29T14:52:00.773Z,12.00
2018-05-29T14:54:28.228Z,13.20
2018-05-29T14:56:55.764Z,14.63
2018-05-29T14:59:23.225Z,13.00
2018-05-29T15:01:50.735Z,12.43
2018-05-29T15:04:19.961Z,15.27
2018-05-29T15:06:47.420Z,16.43
2018-05-29T15:09:15.010Z,12.27
2018-05-29T15:11:42.484Z,14.70
2018-05-29T15:14:10.967Z,15.50
2018-05-29T15:16:38.727Z,14.25
2018-05-29T15:19:06.257Z,18.70
2018-05-29T15:21:33.730Z,14.93
2018-05-29T15:24:01.256Z,14.23
2018-05-29T15:26:28.843Z,16.87
2018-05-29T15:28:59.634Z,14.43
2018-05-29T15:31:28.047Z,15.93
2018-05-29T15:33:55.507Z,13.77
2018-05-29T15:36:22.984Z,10.33
2018-05-29T15:38:51.246Z,9.80
2018-05-29T15:41:18.778Z,12.70
2018-05-29T15:43:47.692Z,15.77
2018-05-29T15:46:15.212Z,12.70
2018-05-29T15:48:42.720Z,19.73
2018-05-29T15:51:10.452Z,14.48
2018-05-29T15:53:37.940Z,8.85
2018-05-29T15:56:06.334Z,10.07
2018-05-29T15:58:38.392Z,10.20
2018-05-29T16:01:07.564Z,12.80
2018-05-29T16:03:35.136Z,10.27
2018-05-29T16:06:02.614Z,18.03
2018-05-29T16:08:31.781Z,16.60
2018-05-29T16:10:59.249Z,12.27
2018-05-29T16:13:27.019Z,15.07
2018-05-29T16:15:54.593Z,11.77
2018-05-29T16:18:22.303Z,13.23
2018-05-29T16:20:50.360Z,16.27
2018-05-29T16:23:17.870Z,12.90
2018-05-29T16:25:45.328Z,21.13
2018-05-29T16:28:13.237Z,12.53
2018-05-29T16:30:40.719Z,19.50
2018-05-29T16:33:08.221Z,13.73
2018-05-29T16:35:36.576Z,17.60
2018-05-29T16:38:05.155Z,17.23
2018-05-29T16:40:32.637Z,15.93
2018-05-29T16:43:00.305Z,19.83
2018-05-29T16:45:30.808Z,13.73
2018-05-29T16:47:58.285Z,16.77
2018-05-29T16:50:25.931Z,25.60
2018-05-29T16:52:53.894Z,21.92
2018-05-29T16:55:21.456Z,24.90
2018-05-29T16:57:48.925Z,15.32
2018-05-29T17:00:20.272Z,13.93
2018-05-29T17:02:49.452Z,17.60
2018-05-29T17:05:16.899Z,16.07
2018-05-29T17:07:44.397Z,23.33
2018-05-29T17:10:13.569Z,13.10
2018-05-29T17:12:41.041Z,14.70
2018-05-29T17:15:11.623Z,16.67
2018-05-29T17:17:39.159Z,17.70
2018-05-29T17:20:06.669Z,21.60
2018-05-29T17:22:34.169Z,15.97
2018-05-29T17:25:04.144Z,22.90
2018-05-29T17:27:31.711Z,22.67
2018-05-29T17:30:02.856Z,23.10
2018-05-29T17:32:30.316Z,18.73
2018-05-29T17:34:57.969Z,19.53
2018-05-29T17:37:25.444Z,21.00
2018-05-29T17:39:52.933Z,24.13
2018-05-29T17:42:22.125Z,27.20
2018-05-29T17:44:50.367Z,21.23
2018-05-29T17:47:17.880Z,24.92
2018-05-29T17:49:45.396Z,28.03
2018-05-29T17:52:12.908Z,25.50
2018-05-29T17:54:43.028Z,21.53
2018-05-29T17:57:10.541Z,31.97
2018-05-29T17:59:38.084Z,23.73
2018-05-29T18:02:06.692Z,20.63
2018-05-29T18:04:35.925Z,20.97
2018-05-29T18:07:03.526Z,18.50
2018-05-29T18:09:31.155Z,20.37
2018-05-29T18:11:58.660Z,15.47
2018-05-29T18:14:26.236Z,22.90
2018-05-29T18:16:53.833Z,18.17
2018-05-29T18:19:21.352Z,17.63
2018-05-29T18:21:48.944Z,17.73
2018-05-29T18:24:17.211Z,18.65
2018-05-29T18:26:45.061Z,15.98
2018-05-29T18:29:12.757Z,18.90
2018-05-29T18:31:43.804Z,17.90
2018-05-29T18:34:11.384Z,13.53
2018-05-29T18:36:38.909Z,18.65
2018-05-29T18:39:06.447Z,21.87
2018-05-29T18:41:34.492Z,17.80
2018-05-29T18:44:02.819Z,20.07
2018-05-29T18:46:30.429Z,11.70
2018-05-29T18:48:59.865Z,13.00
2018-05-29T18:51:27.378Z,20.00
2018-05-29T18:53:54.869Z,15.37
2018-05-29T18:56:22.466Z,22.55
2018-05-29T18:58:49.942Z,26.43
2018-05-29T19:01:19.145Z,19.42
2018-05-29T19:03:46.659Z,22.33
2018-05-29T19:06:14.237Z,16.40
2018-05-29T19:08:42.723Z,20.88
2018-05-29T19:11:10.224Z,15.00
2018-05-29T19:13:37.736Z,13.63
2018-05-29T19:16:05.261Z,17.13
2018-05-29T19:18:32.813Z,14.00
2018-05-29T19:21:02.035Z,16.35
2018-05-29T19:23:29.553Z,18.12
2018-05-29T19:25:57.927Z,21.23
2018-05-29T19:28:25.657Z,19.80
2018-05-29T19:30:53.187Z,17.03
2018-05-29T19:33:22.042Z,17.25
2018-05-29T19:35:49.550Z,19.17
2018-05-29T19:38:17.043Z,18.40
2018-05-29T19:40:44.568Z,22.87
2018-05-29T19:43:12.071Z,24.77
2018-05-29T19:45:40.349Z,26.65
2018-05-29T19:48:08.660Z,22.80
2018-05-29T19:50:37.086Z,22.90
2018-05-29T19:53:05.616Z,22.47
2018-05-29T19:55:33.881Z,21.67
2018-05-29T19:58:01.415Z,30.77
2018-05-29T20:00:29.880Z,24.92
2018-05-29T20:02:57.453Z,30.55
2018-05-29T20:05:25.667Z,24.50
2018-05-29T20:07:53.165Z,22.10
2018-05-29T20:10:21.216Z,23.67
2018-05-29T20:12:49.418Z,25.08
2018-05-29T20:15:17.953Z,23.73
2018-05-29T20:17:48.846Z,19.67
2018-05-29T20:20:17.241Z,26.33
2018-05-29T20:22:44.763Z,26.73
2018-05-29T20:25:12.277Z,22.67
2018-05-29T20:27:39.796Z,27.75
2018-05-29T20:30:07.349Z,23.13
2018-05-29T20:32:34.865Z,25.53
2018-05-29T20:35:04.075Z,35.23
2018-05-29T20:37:31.558Z,23.10
2018-05-29T20:39:59.097Z,26.83
2018-05-29T20:42:26.570Z,29.08
2018-05-29T20:44:54.076Z,24.70
2018-05-29T20:47:21.577Z,26.93
2018-05-29T20:49:49.109Z,20.57
2018-05-29T20:52:17.609Z,18.85
2018-05-29T20:54:45.101Z,39.63
2018-05-29T20:57:12.579Z,17.90
2018-05-29T20:59:40.074Z,22.10
2018-05-29T21:02:07.593Z,19.47
2018-05-29T21:04:41.996Z,22.15
2018-05-29T21:07:09.519Z,27.83
2018-05-29T21:09:37.052Z,28.83
2018-05-29T21:12:04.663Z,27.80
2018-05-29T21:14:32.149Z,21.67
2018-05-29T21:16:59.719Z,22.40
2018-05-29T21:19:27.241Z,23.83
2018-05-29T21:21:54.725Z,21.80
2018-05-29T21:24:22.222Z,25.08
2018-05-29T21:26:50.918Z,24.45
2018-05-29T21:29:18.478Z,25.57
2018-05-29T21:31:46.000Z,20.77
2018-05-29T21:34:16.622Z,24.37
2018-05-29T21:36:45.842Z,40.20
2018-05-29T21:39:14.069Z,26.77
2018-05-29T21:41:41.630Z,22.43
2018-05-29T21:44:09.123Z,21.40
2018-05-29T21:46:37.772Z,30.87
2018-05-29T21:49:08.698Z,28.63
2018-05-29T21:51:36.192Z,20.42
2018-05-29T21:54:05.399Z,26.60
2018-05-29T21:56:33.071Z,27.23
2018-05-29T21:59:01.301Z,23.10
2018-05-29T22:01:29.960Z,21.62
2018-05-29T22:04:03.364Z,23.93
2018-05-29T22:06:30.858Z,31.37
2018-05-29T22:08:58.473Z,26.07
2018-05-29T22:11:26.342Z,24.60
2018-05-29T22:13:53.848Z,32.77
2018-05-29T22:16:21.335Z,27.87
2018-05-29T22:18:50.569Z,30.30
2018-05-29T22:21:21.726Z,29.13
2018-05-29T22:23:50.115Z,23.23
2018-05-29T22:26:17.678Z,28.40
2018-05-29T22:28:45.137Z,24.93
2018-05-29T22:31:13.616Z,25.95
2018-05-29T22:33:41.393Z,28.45
2018-05-29T22:36:09.466Z,27.25
2018-05-29T22:38:36.989Z,28.40
2018-05-29T22:41:04.448Z,25.90
2018-05-29T22:43:31.952Z,23.37
2018-05-29T22:45:59.429Z,33.07
2018-05-29T22:48:27.195Z,25.70
2018-05-29T22:50:54.682Z,26.57
2018-05-29T22:53:22.210Z,27.23
2018-05-29T22:55:50.468Z,32.97
2018-05-29T22:58:17.965Z,31.73
2018-05-29T23:00:45.435Z,26.93
2018-05-29T23:03:13.141Z,36.83
2018-05-29T23:05:44.632Z,29.10
2018-05-29T23:08:13.364Z,26.60
2018-05-29T23:10:40.898Z,26.05
2018-05-29T23:13:08.357Z,24.43
2018-05-29T23:15:35.795Z,25.30
2018-05-29T23:18:03.276Z,15.57
2018-05-29T23:20:31.661Z,21.13
2018-05-29T23:22:59.161Z,25.17
2018-05-29T23:25:26.664Z,23.50
2018-05-29T23:27:54.118Z,25.53
2018-05-29T23:30:21.580Z,26.08
2018-05-29T23:32:49.112Z,21.62
2018-05-29T23:35:16.589Z,23.12
2018-05-29T23:37:44.047Z,25.30
2018-05-29T23:40:11.625Z,26.57
2018-05-29T23:42:39.164Z,24.73
2018-05-29T23:45:06.640Z,25.63
2018-05-29T23:47:35.629Z,25.73
2018-05-29T23:50:03.125Z,23.20
2018-05-29T23:52:30.693Z,22.43
2018-05-29T23:54:58.148Z,28.50
2018-05-29T23:57:25.637Z,24.43
2018-05-29T23:59:54.013Z,28.57
